Terminal Aerodrome Forecast
Issued by NWS

Home | Current Version | Previous Version | Text Only | Print | Product List | Glossary Off
Versions: 1 2 3 4 5 6 7 8 9 10 11 12 13 14 15 16 17 18 19 20 21 22 23 24 25 26 27 28

178
FTUS43 KGRB 201249 AAA
TAFRHI
TAF AMD
KRHI 201249Z 2013/2112 10012G18KT 2SM -RA BR OVC006
      TEMPO 2013/2015 5SM -DZ BR OVC004
     FM201500 05006KT 2SM -RA BR OVC003
     FM201800 01008KT 6SM -RA BR OVC003
     FM202000 33012KT P6SM VCSH OVC012=

USA.gov is the U.S. government's official web portal to all federal, state and local government web resources and services.